Time;durP1;ratioP1;P1;durP2;ratioP2;P2;SDS_P1;SDS_P2;PMS_P1;PMS_P2;Temp;Humidity;BMP_temperature;BMP_pressure;BME280_temperature;BME280_humidity;BME280_pressure;Samples;Min_cycle;Max_cycle;Signal;HPM_P1;HPM_P2
2022/11/19 00:01:13;;;;;;;12.40;5.90;;;;;;;;;;4897051;29;20089;-63
2022/11/19 00:03:40;;;;;;;9.35;5.35;;;;;;;;;;4897173;29;20056;-63
2022/11/19 00:06:07;;;;;;;8.77;5.40;;;;;;;;;;4911771;29;20067;-63
2022/11/19 00:08:34;;;;;;;8.45;4.85;;;;;;;;;;4896113;29;20098;-63
2022/11/19 00:11:08;;;;;;;10.05;5.38;;;;;;;;;;4896473;29;20048;-63
2022/11/19 00:13:35;;;;;;;9.70;5.90;;;;;;;;;;4895066;29;20049;-63
2022/11/19 00:16:03;;;;;;;8.25;5.13;;;;;;;;;;4895175;29;20080;-63
2022/11/19 00:18:29;;;;;;;7.47;5.18;;;;;;;;;;4897321;29;20095;-63
2022/11/19 00:21:00;;;;;;;8.93;4.88;;;;;;;;;;4899920;29;20052;-63
2022/11/19 00:23:26;;;;;;;6.70;5.13;;;;;;;;;;4898482;29;20044;-63
2022/11/19 00:25:53;;;;;;;9.70;5.72;;;;;;;;;;4899675;29;20052;-63
2022/11/19 00:28:19;;;;;;;9.45;5.22;;;;;;;;;;4899217;29;20047;-63
2022/11/19 00:30:46;;;;;;;9.07;5.97;;;;;;;;;;4913821;29;20092;-63
2022/11/19 00:33:14;;;;;;;8.70;4.95;;;;;;;;;;4899569;29;20127;-63
2022/11/19 00:35:40;;;;;;;13.10;5.75;;;;;;;;;;4898424;29;20059;-63
2022/11/19 00:38:06;;;;;;;11.88;5.32;;;;;;;;;;4898981;29;20052;-63
2022/11/19 00:40:33;;;;;;;8.77;5.78;;;;;;;;;;4899521;29;20077;-63
2022/11/19 00:45:49;;;;;;;11.68;6.30;;;;;;;;;;4881003;29;20053;-63
2022/11/19 00:48:15;;;;;;;10.18;6.00;;;;;;;;;;4898849;29;20139;-63
2022/11/19 00:50:42;;;;;;;9.75;6.05;;;;;;;;;;4913780;29;20049;-63
2022/11/19 00:53:08;;;;;;;7.00;5.68;;;;;;;;;;4899154;29;20048;-63
2022/11/19 00:55:35;;;;;;;7.47;5.38;;;;;;;;;;4899315;29;20048;-63
2022/11/19 00:58:02;;;;;;;9.93;6.22;;;;;;;;;;4898723;29;20049;-63
2022/11/19 01:00:28;;;;;;;8.52;5.55;;;;;;;;;;4899161;29;20113;-63
2022/11/19 01:02:56;;;;;;;9.05;5.32;;;;;;;;;;4913503;29;20063;-63
2022/11/19 01:05:22;;;;;;;10.25;5.80;;;;;;;;;;4899005;29;20122;-63
2022/11/19 01:07:49;;;;;;;8.25;5.43;;;;;;;;;;4899427;29;20100;-64
2022/11/19 01:10:15;;;;;;;7.53;5.70;;;;;;;;;;4899049;29;20391;-63
2022/11/19 01:15:27;;;;;;;9.48;4.95;;;;;;;;;;4898887;29;20108;-63
2022/11/19 01:17:53;;;;;;;8.20;4.72;;;;;;;;;;4898298;29;20048;-64
2022/11/19 01:20:19;;;;;;;8.95;5.32;;;;;;;;;;4898854;29;20054;-64
2022/11/19 01:22:46;;;;;;;8.75;5.55;;;;;;;;;;4913633;29;20063;-64
2022/11/19 01:25:13;;;;;;;8.45;5.00;;;;;;;;;;4899132;29;20132;-63
2022/11/19 01:27:39;;;;;;;7.53;5.22;;;;;;;;;;4898239;29;20041;-64
2022/11/19 01:30:06;;;;;;;7.35;4.45;;;;;;;;;;4897781;29;20450;-64
2022/11/19 01:32:32;;;;;;;7.60;5.03;;;;;;;;;;4898565;29;20037;-63
2022/11/19 01:34:59;;;;;;;5.90;4.50;;;;;;;;;;4898733;29;20047;-64
2022/11/19 01:37:25;;;;;;;6.93;4.07;;;;;;;;;;4898454;29;20048;-63
2022/11/19 01:39:52;;;;;;;8.45;4.32;;;;;;;;;;4898570;29;20454;-62
2022/11/19 01:42:48;;;;;;;6.00;4.40;;;;;;;;;;4898551;29;20044;-63
2022/11/19 01:45:31;;;;;;;6.45;4.53;;;;;;;;;;4898192;29;20052;-63
2022/11/19 01:48:09;;;;;;;9.20;4.53;;;;;;;;;;4898096;29;20108;-63
2022/11/19 01:50:41;;;;;;;6.97;4.22;;;;;;;;;;4898409;29;20040;-63
2022/11/19 01:53:08;;;;;;;5.22;3.92;;;;;;;;;;4898387;29;20048;-63
2022/11/19 01:55:35;;;;;;;7.70;4.45;;;;;;;;;;4898134;29;20106;-64
2022/11/19 01:58:02;;;;;;;7.85;4.13;;;;;;;;;;4897775;29;20072;-64
2022/11/19 02:00:28;;;;;;;6.60;3.90;;;;;;;;;;4896930;29;20071;-63
2022/11/19 02:02:57;;;;;;;8.25;4.10;;;;;;;;;;4896950;29;20403;-63
2022/11/19 02:05:25;;;;;;;6.85;4.60;;;;;;;;;;4898210;29;20109;-63
2022/11/19 02:07:53;;;;;;;6.18;4.32;;;;;;;;;;4897530;29;20045;-64
2022/11/19 02:10:23;;;;;;;7.47;5.18;;;;;;;;;;4898003;29;20036;-64
2022/11/19 02:12:52;;;;;;;7.32;4.82;;;;;;;;;;4897940;29;20104;-64
2022/11/19 02:15:18;;;;;;;12.02;5.47;;;;;;;;;;4897725;29;20040;-64
2022/11/19 02:17:58;;;;;;;6.60;5.50;;;;;;;;;;4897600;29;20045;-64
2022/11/19 02:20:30;;;;;;;8.90;4.28;;;;;;;;;;4897805;29;20051;-64
2022/11/19 02:23:07;;;;;;;7.60;4.82;;;;;;;;;;4897954;29;20394;-63
2022/11/19 02:25:43;;;;;;;8.82;5.00;;;;;;;;;;4897755;29;20036;-63
2022/11/19 02:28:20;;;;;;;6.85;5.05;;;;;;;;;;4911545;29;20096;-64
2022/11/19 02:30:48;;;;;;;7.47;4.85;;;;;;;;;;4896286;29;20045;-64
2022/11/19 02:33:33;;;;;;;6.57;5.22;;;;;;;;;;4897429;29;20104;-64
2022/11/19 02:36:13;;;;;;;8.00;4.78;;;;;;;;;;4897701;29;20104;-64
2022/11/19 02:38:44;;;;;;;7.55;5.15;;;;;;;;;;4896794;29;20059;-64
2022/11/19 02:46:56;;;;;;;8.73;5.22;;;;;;;;;;4897362;29;20044;-64
2022/11/19 02:49:25;;;;;;;7.45;5.47;;;;;;;;;;4896621;29;20044;-64
2022/11/19 02:51:52;;;;;;;8.65;5.40;;;;;;;;;;4895985;29;20409;-64
2022/11/19 02:54:19;;;;;;;10.55;6.28;;;;;;;;;;4896120;29;20049;-64
2022/11/19 02:56:57;;;;;;;7.50;5.13;;;;;;;;;;4897228;29;20049;-64
2022/11/19 03:05:04;;;;;;;10.90;5.07;;;;;;;;;;4897118;29;20060;-64
2022/11/19 03:07:30;;;;;;;5.97;5.18;;;;;;;;;;4879756;29;20048;-64
2022/11/19 03:09:59;;;;;;;7.50;4.88;;;;;;;;;;4897012;29;20044;-64
2022/11/19 03:12:40;;;;;;;7.40;5.00;;;;;;;;;;4895748;29;20112;-64
2022/11/19 03:18:28;;;;;;;6.22;5.00;;;;;;;;;;4896488;29;20057;-64
2022/11/19 03:21:00;;;;;;;8.88;5.70;;;;;;;;;;4895645;29;20052;-64
2022/11/19 03:23:38;;;;;;;9.73;5.07;;;;;;;;;;4896807;29;20048;-64
2022/11/19 03:26:17;;;;;;;8.70;6.03;;;;;;;;;;4896927;29;20080;-64
2022/11/19 03:28:44;;;;;;;10.07;5.80;;;;;;;;;;4910699;29;20059;-64
2022/11/19 03:31:11;;;;;;;8.80;5.65;;;;;;;;;;4896955;29;20090;-64
2022/11/19 03:33:42;;;;;;;9.77;5.93;;;;;;;;;;4896871;29;20041;-65
2022/11/19 03:36:10;;;;;;;7.50;5.38;;;;;;;;;;4896902;29;20064;-64
2022/11/19 03:38:42;;;;;;;8.77;5.82;;;;;;;;;;4910857;29;20049;-64
2022/11/19 03:41:10;;;;;;;8.13;5.85;;;;;;;;;;4896844;29;20108;-64
2022/11/19 03:43:37;;;;;;;9.95;5.70;;;;;;;;;;4896739;29;20075;-64
2022/11/19 03:46:05;;;;;;;10.18;6.15;;;;;;;;;;4896535;29;20055;-64
2022/11/19 03:48:33;;;;;;;8.07;5.60;;;;;;;;;;4896227;29;20051;-64
2022/11/19 03:51:03;;;;;;;7.13;5.75;;;;;;;;;;4880034;29;20502;-64
2022/11/19 03:53:29;;;;;;;10.40;5.63;;;;;;;;;;4898062;29;20045;-64
2022/11/19 03:56:01;;;;;;;8.32;5.22;;;;;;;;;;4900502;29;20076;-64
2022/11/19 03:58:28;;;;;;;8.40;6.10;;;;;;;;;;4899594;29;20490;-64
2022/11/19 04:00:55;;;;;;;9.25;6.05;;;;;;;;;;4900244;29;20045;-64
2022/11/19 04:03:21;;;;;;;11.00;6.75;;;;;;;;;;4900317;29;20565;-64
2022/11/19 04:05:48;;;;;;;6.90;5.40;;;;;;;;;;4900456;29;20055;-64
2022/11/19 04:08:14;;;;;;;9.40;6.40;;;;;;;;;;4899714;29;20052;-64
2022/11/19 04:10:40;;;;;;;9.50;5.90;;;;;;;;;;4900224;29;20110;-64
2022/11/19 04:13:07;;;;;;;9.05;5.55;;;;;;;;;;4899912;29;20040;-64
2022/11/19 04:15:33;;;;;;;8.43;5.85;;;;;;;;;;4898717;29;20041;-64
2022/11/19 04:17:59;;;;;;;7.65;5.75;;;;;;;;;;4899484;29;20044;-64
2022/11/19 04:20:26;;;;;;;7.97;5.72;;;;;;;;;;4899926;29;20044;-64
2022/11/19 04:22:52;;;;;;;7.78;5.22;;;;;;;;;;4899884;29;20462;-64
2022/11/19 04:25:19;;;;;;;5.38;4.55;;;;;;;;;;4898863;29;20053;-64
2022/11/19 04:27:48;;;;;;;5.80;4.95;;;;;;;;;;4899161;29;20044;-64
2022/11/19 04:30:15;;;;;;;5.72;4.47;;;;;;;;;;4898646;29;20048;-64
2022/11/19 04:32:42;;;;;;;4.93;4.05;;;;;;;;;;4899655;29;20048;-64
2022/11/19 04:35:09;;;;;;;8.20;4.50;;;;;;;;;;4914223;29;20041;-63
2022/11/19 04:37:35;;;;;;;6.65;5.30;;;;;;;;;;4899274;29;20051;-64
2022/11/19 04:40:02;;;;;;;5.50;4.50;;;;;;;;;;4914109;29;20271;-64
2022/11/19 04:42:28;;;;;;;9.60;5.10;;;;;;;;;;4913859;29;20111;-64
2022/11/19 04:44:54;;;;;;;8.82;5.20;;;;;;;;;;4899513;29;20055;-64
2022/11/19 04:47:21;;;;;;;6.68;5.05;;;;;;;;;;4899017;29;20041;-63
2022/11/19 04:49:47;;;;;;;8.77;4.65;;;;;;;;;;4899520;29;20067;-63
2022/11/19 04:52:14;;;;;;;7.75;4.50;;;;;;;;;;4899227;29;20104;-64
2022/11/19 04:54:40;;;;;;;6.63;5.03;;;;;;;;;;4899206;29;20455;-65
2022/11/19 04:57:06;;;;;;;4.90;4.00;;;;;;;;;;4899186;29;20106;-64
2022/11/19 04:59:33;;;;;;;5.47;4.53;;;;;;;;;;4898735;29;20567;-64
2022/11/19 05:02:00;;;;;;;6.15;4.00;;;;;;;;;;5285692;23;20047;-61
2022/11/19 05:04:26;;;;;;;12.38;4.57;;;;;;;;;;4935924;29;20047;-61
2022/11/19 05:06:52;;;;;;;7.18;4.65;;;;;;;;;;4937169;29;20044;-61
2022/11/19 05:09:19;;;;;;;7.85;4.70;;;;;;;;;;4951661;28;20534;-61
2022/11/19 05:11:46;;;;;;;7.25;4.68;;;;;;;;;;4931040;29;20507;-61
2022/11/19 05:14:12;;;;;;;5.15;4.50;;;;;;;;;;4933956;29;20044;-61
2022/11/19 05:16:38;;;;;;;6.88;4.40;;;;;;;;;;4919465;29;20056;-61
2022/11/19 05:19:05;;;;;;;9.80;4.80;;;;;;;;;;4933177;29;20121;-61
2022/11/19 05:21:31;;;;;;;7.93;4.40;;;;;;;;;;4918182;29;20047;-61
2022/11/19 05:23:58;;;;;;;7.55;4.68;;;;;;;;;;4918137;29;20052;-61
2022/11/19 05:26:24;;;;;;;11.25;4.97;;;;;;;;;;4917695;29;20100;-61
2022/11/19 05:28:50;;;;;;;11.10;5.97;;;;;;;;;;4917524;29;20048;-61
2022/11/19 05:31:17;;;;;;;7.63;5.53;;;;;;;;;;4931973;29;20044;-61
2022/11/19 05:33:43;;;;;;;5.65;4.60;;;;;;;;;;4917827;29;20060;-61
2022/11/19 05:36:10;;;;;;;6.30;4.13;;;;;;;;;;4917926;29;20412;-62
2022/11/19 05:38:36;;;;;;;10.48;6.75;;;;;;;;;;4932457;29;20052;-61
2022/11/19 05:41:03;;;;;;;8.90;5.25;;;;;;;;;;4917537;29;20047;-61
2022/11/19 05:43:30;;;;;;;9.05;5.40;;;;;;;;;;4917314;29;20055;-62
2022/11/19 05:46:00;;;;;;;8.90;5.07;;;;;;;;;;4917094;29;20048;-62
2022/11/19 05:48:27;;;;;;;7.20;5.00;;;;;;;;;;4916650;29;20044;-62
2022/11/19 05:50:53;;;;;;;7.30;4.80;;;;;;;;;;4917058;29;20041;-62
2022/11/19 05:53:20;;;;;;;5.93;4.72;;;;;;;;;;4931472;29;20373;-62
2022/11/19 05:55:47;;;;;;;4.78;4.03;;;;;;;;;;4915777;29;20055;-62
2022/11/19 05:58:13;;;;;;;7.85;4.78;;;;;;;;;;4916568;29;20048;-61
2022/11/19 06:00:39;;;;;;;6.57;5.18;;;;;;;;;;4917045;29;20072;-60
2022/11/19 06:03:07;;;;;;;6.05;5.00;;;;;;;;;;4917030;29;20044;-61
2022/11/19 06:05:33;;;;;;;11.10;5.40;;;;;;;;;;4916947;29;20048;-61
2022/11/19 06:08:05;;;;;;;7.88;5.82;;;;;;;;;;4916192;29;20044;-61
2022/11/19 06:10:32;;;;;;;7.10;5.10;;;;;;;;;;4916908;29;20047;-61
2022/11/19 06:12:58;;;;;;;9.70;5.15;;;;;;;;;;4916788;29;20044;-61
2022/11/19 06:15:24;;;;;;;10.02;5.75;;;;;;;;;;4916514;29;20044;-61
2022/11/19 06:17:51;;;;;;;9.43;5.70;;;;;;;;;;4916103;29;20071;-61
2022/11/19 06:20:17;;;;;;;7.22;4.68;;;;;;;;;;4931121;29;20048;-61
2022/11/19 06:22:44;;;;;;;7.00;4.93;;;;;;;;;;4916502;29;20048;-61
2022/11/19 06:25:10;;;;;;;7.03;4.68;;;;;;;;;;4915457;29;20059;-61
2022/11/19 06:27:37;;;;;;;7.68;5.47;;;;;;;;;;4915969;29;20103;-61
2022/11/19 06:30:04;;;;;;;10.35;5.65;;;;;;;;;;4916383;29;20489;-61
2022/11/19 06:32:30;;;;;;;8.88;4.75;;;;;;;;;;4915132;29;20044;-61
2022/11/19 06:34:57;;;;;;;5.75;4.40;;;;;;;;;;4916533;29;20048;-61
2022/11/19 06:37:23;;;;;;;8.93;4.78;;;;;;;;;;4930318;29;20134;-62
2022/11/19 06:39:49;;;;;;;8.18;4.38;;;;;;;;;;4916337;29;20052;-62
2022/11/19 06:45:11;;;;;;;6.80;4.70;;;;;;;;;;4916294;29;20048;-62
2022/11/19 06:47:39;;;;;;;5.60;3.83;;;;;;;;;;4914371;29;20044;-62
2022/11/19 06:50:06;;;;;;;8.00;4.65;;;;;;;;;;4916169;29;20259;-62
2022/11/19 06:52:33;;;;;;;5.70;3.47;;;;;;;;;;4916073;29;20488;-62
2022/11/19 06:54:59;;;;;;;5.72;3.78;;;;;;;;;;4916229;29;20512;-62
2022/11/19 06:57:26;;;;;;;8.25;4.15;;;;;;;;;;4915545;29;20484;-62
2022/11/19 06:59:52;;;;;;;7.13;4.00;;;;;;;;;;4915930;29;20040;-62
2022/11/19 07:02:18;;;;;;;15.30;8.82;;;;;;;;;;4930524;29;20043;-62
2022/11/19 07:04:47;;;;;;;8.68;5.03;;;;;;;;;;4930807;29;20052;-62
2022/11/19 07:07:13;;;;;;;7.72;4.68;;;;;;;;;;4915922;29;20054;-62
2022/11/19 07:09:40;;;;;;;5.20;3.90;;;;;;;;;;4915540;29;20059;-62
2022/11/19 07:12:07;;;;;;;12.45;4.25;;;;;;;;;;4930320;29;20128;-62
2022/11/19 07:14:33;;;;;;;5.63;4.50;;;;;;;;;;4914497;29;20052;-62
2022/11/19 07:17:00;;;;;;;5.57;3.80;;;;;;;;;;4915865;29;20056;-61
2022/11/19 07:19:26;;;;;;;4.75;3.35;;;;;;;;;;4915394;29;20111;-62
2022/11/19 07:21:53;;;;;;;5.35;3.72;;;;;;;;;;4914429;29;20055;-62
2022/11/19 07:24:19;;;;;;;5.72;2.97;;;;;;;;;;4915997;29;20063;-62
2022/11/19 07:26:46;;;;;;;5.60;3.47;;;;;;;;;;4915769;29;20044;-62
2022/11/19 07:29:13;;;;;;;7.32;3.25;;;;;;;;;;4917682;29;20040;-62
2022/11/19 07:31:40;;;;;;;10.57;3.65;;;;;;;;;;4919676;29;20044;-62
2022/11/19 07:34:07;;;;;;;4.10;3.20;;;;;;;;;;4919738;29;20048;-61
2022/11/19 07:36:33;;;;;;;5.63;3.17;;;;;;;;;;4919639;29;20040;-61
2022/11/19 07:39:00;;;;;;;7.68;3.97;;;;;;;;;;4919017;29;20052;-62
2022/11/19 07:44:11;;;;;;;8.05;3.85;;;;;;;;;;4919404;29;20131;-62
2022/11/19 07:46:38;;;;;;;7.13;3.63;;;;;;;;;;4919537;29;20048;-62
2022/11/19 07:49:05;;;;;;;5.88;4.05;;;;;;;;;;4933330;29;20067;-62
2022/11/19 07:51:31;;;;;;;7.97;4.22;;;;;;;;;;4933802;29;20051;-62
2022/11/19 07:53:58;;;;;;;7.15;4.20;;;;;;;;;;4933805;29;20040;-62
2022/11/19 07:56:24;;;;;;;5.25;3.63;;;;;;;;;;4917909;29;20047;-63
2022/11/19 07:58:51;;;;;;;6.70;3.78;;;;;;;;;;4918666;29;20480;-62
2022/11/19 08:01:18;;;;;;;10.75;4.15;;;;;;;;;;4918991;29;20048;-62
2022/11/19 08:03:46;;;;;;;19.67;4.97;;;;;;;;;;4919253;29;20048;-62
2022/11/19 08:06:20;;;;;;;6.63;3.13;;;;;;;;;;4919415;29;20071;-62
2022/11/19 08:08:47;;;;;;;13.52;3.40;;;;;;;;;;4918605;29;20036;-62
2022/11/19 08:11:14;;;;;;;16.05;4.05;;;;;;;;;;4933744;29;20044;-62
2022/11/19 08:13:41;;;;;;;16.30;4.72;;;;;;;;;;4919174;29;20040;-62
2022/11/19 08:16:09;;;;;;;8.65;3.60;;;;;;;;;;4918927;29;20454;-61
2022/11/19 08:18:36;;;;;;;8.15;3.67;;;;;;;;;;4918431;29;20048;-62
2022/11/19 08:21:03;;;;;;;6.22;3.30;;;;;;;;;;4918798;29;20051;-62
2022/11/19 08:23:30;;;;;;;6.72;3.75;;;;;;;;;;4917467;29;20056;-62
2022/11/19 08:25:57;;;;;;;5.65;4.05;;;;;;;;;;4933597;29;20520;-61
2022/11/19 08:28:23;;;;;;;6.20;3.40;;;;;;;;;;4918408;29;20047;-62
2022/11/19 08:30:50;;;;;;;8.18;5.15;;;;;;;;;;4933309;29;20040;-61
2022/11/19 08:33:17;;;;;;;8.55;4.13;;;;;;;;;;4918699;29;20493;-61
2022/11/19 08:35:43;;;;;;;6.22;4.38;;;;;;;;;;4918491;29;20050;-61
2022/11/19 08:38:10;;;;;;;7.68;4.63;;;;;;;;;;4917919;29;20413;-61
2022/11/19 08:40:36;;;;;;;6.53;4.45;;;;;;;;;;4932656;29;20059;-61
2022/11/19 08:43:03;;;;;;;7.32;4.25;;;;;;;;;;4918321;29;20390;-62
2022/11/19 08:45:34;;;;;;;4.90;3.70;;;;;;;;;;4918552;29;20060;-62
2022/11/19 08:48:01;;;;;;;6.45;4.22;;;;;;;;;;4917955;29;20048;-62
2022/11/19 08:50:28;;;;;;;6.22;4.15;;;;;;;;;;4917054;29;20067;-62
2022/11/19 08:52:58;;;;;;;5.68;3.97;;;;;;;;;;4918282;29;20048;-62
2022/11/19 08:55:26;;;;;;;4.53;3.60;;;;;;;;;;4918459;29;20047;-62
2022/11/19 08:57:57;;;;;;;4.97;3.63;;;;;;;;;;4917710;29;20567;-63
2022/11/19 09:00:24;;;;;;;5.32;3.65;;;;;;;;;;4918271;29;20048;-62
2022/11/19 09:02:50;;;;;;;7.18;4.82;;;;;;;;;;4917835;29;20048;-62
2022/11/19 09:05:17;;;;;;;8.15;4.07;;;;;;;;;;4916793;29;20436;-60
2022/11/19 09:07:43;;;;;;;9.77;4.70;;;;;;;;;;4917455;29;20130;-62
2022/11/19 09:10:10;;;;;;;9.13;4.53;;;;;;;;;;4918002;29;20125;-62
2022/11/19 09:12:36;;;;;;;9.52;4.95;;;;;;;;;;4918164;29;20051;-62
2022/11/19 09:15:03;;;;;;;6.97;4.30;;;;;;;;;;4917202;29;20071;-61
2022/11/19 09:17:30;;;;;;;12.13;6.43;;;;;;;;;;4917974;29;20128;-61
2022/11/19 09:19:56;;;;;;;12.60;5.40;;;;;;;;;;4917091;29;20108;-61
2022/11/19 09:22:23;;;;;;;9.27;5.05;;;;;;;;;;4933566;29;20043;-62
2022/11/19 09:24:49;;;;;;;9.95;5.13;;;;;;;;;;4920927;29;20464;-63
2022/11/19 09:27:15;;;;;;;6.45;5.13;;;;;;;;;;4920935;29;20051;-62
2022/11/19 09:29:42;;;;;;;11.10;5.53;;;;;;;;;;4918059;29;20099;-62
2022/11/19 09:32:08;;;;;;;16.35;6.38;;;;;;;;;;4917987;29;20052;-62
2022/11/19 09:34:38;;;;;;;17.35;6.20;;;;;;;;;;4934368;29;20144;-62
2022/11/19 09:37:05;;;;;;;10.10;5.95;;;;;;;;;;4920793;29;20076;-62
2022/11/19 09:39:32;;;;;;;9.10;6.47;;;;;;;;;;4920193;29;20052;-62
2022/11/19 09:42:15;;;;;;;8.73;6.45;;;;;;;;;;4921070;29;20048;-62
2022/11/19 09:44:57;;;;;;;9.00;6.13;;;;;;;;;;4920377;29;20059;-61
2022/11/19 09:47:32;;;;;;;7.75;6.43;;;;;;;;;;4919208;29;20044;-61
2022/11/19 09:50:02;;;;;;;7.30;6.53;;;;;;;;;;4933515;29;20052;-62
2022/11/19 09:52:32;;;;;;;12.80;8.65;;;;;;;;;;4918556;29;20041;-61
2022/11/19 09:54:59;;;;;;;14.80;12.13;;;;;;;;;;4921591;29;20505;-61
2022/11/19 09:57:34;;;;;;;13.32;7.75;;;;;;;;;;4922308;29;20044;-62
2022/11/19 10:00:01;;;;;;;23.70;18.23;;;;;;;;;;4921169;29;20040;-62
2022/11/19 10:02:36;;;;;;;18.48;13.52;;;;;;;;;;4922387;29;20052;-62
2022/11/19 10:05:03;;;;;;;16.00;11.60;;;;;;;;;;4937048;29;20050;-62
2022/11/19 10:07:30;;;;;;;12.25;9.68;;;;;;;;;;4917466;29;20052;-62
2022/11/19 10:09:56;;;;;;;12.95;8.77;;;;;;;;;;4917468;29;20052;-62
2022/11/19 10:12:26;;;;;;;11.07;8.90;;;;;;;;;;4932098;29;20044;-62
2022/11/19 10:15:01;;;;;;;12.90;8.13;;;;;;;;;;4932023;29;20498;-62
2022/11/19 10:17:30;;;;;;;14.18;9.90;;;;;;;;;;4931784;29;20606;-62
2022/11/19 10:20:18;;;;;;;9.80;7.80;;;;;;;;;;4917162;29;20044;-62
2022/11/19 10:22:51;;;;;;;13.40;8.02;;;;;;;;;;4916399;29;20044;-62
2022/11/19 10:25:26;;;;;;;10.68;7.97;;;;;;;;;;4917877;29;20082;-62
2022/11/19 10:27:56;;;;;;;16.15;8.35;;;;;;;;;;4915253;29;20045;-61
2022/11/19 10:30:24;;;;;;;12.65;7.53;;;;;;;;;;4916723;29;20048;-62
2022/11/19 10:32:53;;;;;;;9.35;8.23;;;;;;;;;;4931388;29;20044;-62
2022/11/19 10:35:26;;;;;;;9.52;7.47;;;;;;;;;;4916855;29;20454;-62
2022/11/19 10:37:57;;;;;;;11.13;7.55;;;;;;;;;;4916032;29;20425;-62
2022/11/19 10:40:27;;;;;;;18.77;9.30;;;;;;;;;;4915291;29;20529;-62
2022/11/19 10:42:56;;;;;;;11.45;8.07;;;;;;;;;;4914944;29;20040;-62
2022/11/19 10:45:24;;;;;;;9.30;6.63;;;;;;;;;;4915114;29;20104;-62
2022/11/19 10:47:55;;;;;;;9.15;5.88;;;;;;;;;;4915574;29;20056;-62
2022/11/19 10:50:22;;;;;;;10.07;6.20;;;;;;;;;;4915057;29;20047;-61
2022/11/19 10:52:52;;;;;;;8.38;5.28;;;;;;;;;;4916409;29;20095;-62
2022/11/19 10:55:39;;;;;;;4.97;4.40;;;;;;;;;;4916345;29;20044;-62
2022/11/19 10:58:24;;;;;;;7.10;4.63;;;;;;;;;;4915867;29;20453;-62
2022/11/19 11:00:52;;;;;;;7.35;3.72;;;;;;;;;;4916265;29;20040;-62
2022/11/19 11:03:42;;;;;;;5.22;3.10;;;;;;;;;;4914505;29;20052;-62
2022/11/19 11:06:09;;;;;;;4.82;2.90;;;;;;;;;;4930928;29;20051;-62
2022/11/19 11:08:46;;;;;;;3.65;3.00;;;;;;;;;;4914337;29;20445;-62
2022/11/19 11:11:18;;;;;;;4.78;2.70;;;;;;;;;;4916037;29;20152;-62
2022/11/19 11:16:45;;;;;;;3.88;2.63;;;;;;;;;;4904491;29;20056;-62
2022/11/19 11:19:18;;;;;;;2.42;2.00;;;;;;;;;;4914121;29;20458;-61
2022/11/19 11:21:49;;;;;;;3.97;2.55;;;;;;;;;;4916148;29;20449;-61
2022/11/19 11:24:16;;;;;;;2.60;2.22;;;;;;;;;;4914941;29;20048;-61
2022/11/19 11:26:42;;;;;;;2.90;2.60;;;;;;;;;;4915956;29;20408;-61
2022/11/19 11:29:09;;;;;;;3.47;2.47;;;;;;;;;;4914238;29;20390;-61
2022/11/19 11:31:37;;;;;;;2.53;2.33;;;;;;;;;;4916102;29;20040;-61
2022/11/19 11:34:04;;;;;;;3.38;2.80;;;;;;;;;;4899248;29;20045;-61
2022/11/19 11:36:34;;;;;;;2.85;2.40;;;;;;;;;;4916009;29;20900;-61
2022/11/19 11:39:01;;;;;;;3.45;3.00;;;;;;;;;;4915288;29;20044;-61
2022/11/19 11:41:38;;;;;;;3.28;2.63;;;;;;;;;;4915666;29;20063;-62
2022/11/19 11:44:26;;;;;;;4.68;3.20;;;;;;;;;;4914480;29;20055;-61
2022/11/19 11:46:57;;;;;;;3.03;2.60;;;;;;;;;;4930132;29;20143;-61
2022/11/19 11:49:23;;;;;;;5.78;2.10;;;;;;;;;;4915108;29;20044;-62
2022/11/19 11:52:05;;;;;;;2.72;2.15;;;;;;;;;;4915607;29;20044;-60
2022/11/19 11:54:31;;;;;;;3.83;2.90;;;;;;;;;;4914802;29;20320;-61
2022/11/19 11:57:13;;;;;;;3.35;2.13;;;;;;;;;;4915896;29;20048;-61
2022/11/19 11:59:40;;;;;;;2.75;2.20;;;;;;;;;;4916840;29;20058;-61
2022/11/19 12:02:07;;;;;;;3.05;2.03;;;;;;;;;;4915948;29;20048;-61
2022/11/19 12:04:34;;;;;;;8.40;6.10;;;;;;;;;;4914406;29;20071;-60
2022/11/19 12:07:21;;;;;;;8.55;5.43;;;;;;;;;;4914677;29;20056;-61
2022/11/19 12:09:48;;;;;;;4.82;3.63;;;;;;;;;;4931354;29;20071;-61
2022/11/19 12:12:35;;;;;;;4.32;3.92;;;;;;;;;;4916798;29;20043;-61
2022/11/19 12:15:21;;;;;;;5.90;4.55;;;;;;;;;;4920998;29;20068;-61
2022/11/19 12:18:06;;;;;;;6.65;4.80;;;;;;;;;;4920690;29;20048;-61
2022/11/19 12:20:46;;;;;;;5.00;4.18;;;;;;;;;;4937201;29;20047;-60
2022/11/19 12:23:18;;;;;;;5.10;4.00;;;;;;;;;;4921832;29;20076;-61
2022/11/19 12:25:54;;;;;;;7.05;4.30;;;;;;;;;;4936970;29;20062;-61
2022/11/19 12:28:20;;;;;;;36.20;10.00;;;;;;;;;;4921735;29;20036;-61
2022/11/19 12:30:46;;;;;;;10.25;5.28;;;;;;;;;;4921399;29;20048;-61
2022/11/19 12:33:25;;;;;;;6.80;4.38;;;;;;;;;;4920593;29;20051;-61
2022/11/19 12:35:51;;;;;;;6.68;4.63;;;;;;;;;;4920015;29;20048;-61
2022/11/19 12:38:23;;;;;;;4.78;4.05;;;;;;;;;;4918203;29;20055;-61
2022/11/19 12:40:59;;;;;;;5.78;4.05;;;;;;;;;;4919183;29;20048;-60
2022/11/19 12:43:52;;;;;;;6.55;4.68;;;;;;;;;;4918697;29;20044;-60
2022/11/19 12:46:27;;;;;;;6.70;5.10;;;;;;;;;;4915657;29;20060;-61
2022/11/19 12:49:01;;;;;;;8.55;5.40;;;;;;;;;;4916865;29;20044;-61
2022/11/19 12:51:54;;;;;;;6.97;5.38;;;;;;;;;;4917641;29;20060;-61
2022/11/19 12:54:24;;;;;;;17.50;7.80;;;;;;;;;;4903195;29;20044;-61
2022/11/19 12:57:20;;;;;;;14.63;6.15;;;;;;;;;;4933691;29;20501;-61
2022/11/19 12:59:47;;;;;;;4.72;4.00;;;;;;;;;;4917642;29;20103;-61
2022/11/19 13:02:31;;;;;;;4.85;3.67;;;;;;;;;;4933413;29;20544;-61
2022/11/19 13:05:01;;;;;;;7.03;5.07;;;;;;;;;;4933395;29;20390;-61
2022/11/19 13:07:31;;;;;;;15.95;9.73;;;;;;;;;;4917105;29;20080;-61
2022/11/19 13:10:04;;;;;;;5.95;3.92;;;;;;;;;;4918504;29;20497;-61
2022/11/19 13:12:42;;;;;;;4.70;3.80;;;;;;;;;;4933032;29;20405;-60
2022/11/19 13:15:29;;;;;;;4.80;4.10;;;;;;;;;;4918173;29;20043;-61
2022/11/19 13:17:57;;;;;;;4.80;3.67;;;;;;;;;;4932091;29;20051;-61
2022/11/19 13:20:42;;;;;;;4.20;3.75;;;;;;;;;;4916943;29;20059;-61
2022/11/19 13:23:12;;;;;;;6.53;4.03;;;;;;;;;;4917111;29;20052;-61
2022/11/19 13:25:41;;;;;;;4.50;4.10;;;;;;;;;;4916724;29;20044;-61
2022/11/19 13:28:23;;;;;;;6.38;4.60;;;;;;;;;;4917587;29;20502;-61
2022/11/19 13:30:51;;;;;;;5.43;4.22;;;;;;;;;;4918273;29;20470;-61
2022/11/19 13:33:31;;;;;;;6.22;4.18;;;;;;;;;;4918655;29;20478;-61
2022/11/19 13:36:16;;;;;;;6.85;4.70;;;;;;;;;;4901682;29;20078;-61
2022/11/19 13:38:54;;;;;;;3.60;3.28;;;;;;;;;;4917594;29;20059;-61
2022/11/19 13:41:24;;;;;;;5.38;4.13;;;;;;;;;;4932718;29;20044;-61
2022/11/19 13:46:57;;;;;;;3.63;2.53;;;;;;;;;;4918220;29;20485;-61
2022/11/19 13:49:24;;;;;;;2.72;2.17;;;;;;;;;;4915948;29;20045;-61
2022/11/19 13:51:50;;;;;;;2.47;1.95;;;;;;;;;;4917841;29;20040;-61
2022/11/19 13:54:24;;;;;;;2.00;1.80;;;;;;;;;;4916355;29;20075;-61
2022/11/19 13:56:52;;;;;;;1.80;1.67;;;;;;;;;;4916730;29;20059;-61
2022/11/19 13:59:27;;;;;;;2.88;2.33;;;;;;;;;;4917411;29;20051;-61
2022/11/19 14:02:02;;;;;;;3.40;2.90;;;;;;;;;;4917867;29;20088;-61
2022/11/19 14:04:47;;;;;;;9.77;2.90;;;;;;;;;;4932457;29;20044;-61
2022/11/19 14:07:13;;;;;;;4.50;2.63;;;;;;;;;;4917624;29;20421;-61
2022/11/19 14:09:40;;;;;;;7.60;4.47;;;;;;;;;;4932595;29;20080;-61
2022/11/19 14:12:15;;;;;;;5.93;4.57;;;;;;;;;;4918052;29;20051;-61
2022/11/19 14:26:40;;;;;;;3.45;3.15;;;;;;;;;;4918038;29;20044;-61
2022/11/19 14:29:18;;;;;;;3.13;2.33;;;;;;;;;;4916840;29;20044;-60
2022/11/19 14:32:15;;;;;;;2.90;2.55;;;;;;;;;;4931634;29;20075;-61
2022/11/19 14:34:59;;;;;;;3.53;2.40;;;;;;;;;;4907918;29;20524;-60
2022/11/19 14:37:32;;;;;;;4.07;2.97;;;;;;;;;;4930712;29;20039;-60
2022/11/19 14:40:11;;;;;;;3.20;2.90;;;;;;;;;;4931383;29;20119;-60
2022/11/19 14:44:07;;;;;;;2.53;2.33;;;;;;;;;;4931465;29;20048;-60
2022/11/19 14:45:42;;;;;;;;;;;;;;;;;;4917420;29;20087;-59
2022/11/19 14:48:09;;;;;;;3.67;3.00;;;;;;;;;;4916524;29;19922;-60
2022/11/19 14:50:35;;;;;;;3.85;2.95;;;;;;;;;;4916817;29;20043;-59
2022/11/19 14:53:01;;;;;;;4.20;3.65;;;;;;;;;;4931146;29;20096;-59
2022/11/19 14:55:29;;;;;;;4.72;3.67;;;;;;;;;;4916595;29;20040;-60
2022/11/19 14:58:00;;;;;;;4.40;4.00;;;;;;;;;;4930429;29;20047;-60
2022/11/19 15:00:29;;;;;;;5.15;4.57;;;;;;;;;;4916599;29;20048;-60
2022/11/19 15:02:56;;;;;;;5.60;4.00;;;;;;;;;;4916424;29;20489;-60
2022/11/19 15:05:32;;;;;;;4.45;4.05;;;;;;;;;;4931017;29;20048;-60
2022/11/19 15:08:17;;;;;;;8.18;6.15;;;;;;;;;;4930385;29;20052;-59
2022/11/19 15:11:01;;;;;;;7.85;6.80;;;;;;;;;;4930659;29;20138;-60
2022/11/19 15:13:29;;;;;;;9.98;6.60;;;;;;;;;;4916185;29;20045;-59
2022/11/19 15:16:01;;;;;;;9.82;7.88;;;;;;;;;;4914991;29;20048;-59
2022/11/19 15:18:40;;;;;;;9.10;7.00;;;;;;;;;;4930269;29;20152;-59
2022/11/19 15:21:20;;;;;;;7.13;6.18;;;;;;;;;;4916376;29;20461;-60
2022/11/19 15:23:46;;;;;;;8.43;6.50;;;;;;;;;;4914895;29;20048;-59
2022/11/19 15:26:36;;;;;;;7.60;6.00;;;;;;;;;;4915905;29;20044;-59
2022/11/19 15:29:21;;;;;;;5.95;5.35;;;;;;;;;;4929663;29;20048;-59
2022/11/19 15:31:59;;;;;;;4.70;4.15;;;;;;;;;;4930345;29;20050;-59
2022/11/19 15:34:43;;;;;;;3.38;3.08;;;;;;;;;;4915104;29;20048;-60
2022/11/19 15:37:53;;;;;;;3.95;3.50;;;;;;;;;;4915523;29;20048;-60
2022/11/19 15:40:21;;;;;;;3.78;3.08;;;;;;;;;;4910120;29;20144;-60
2022/11/19 15:43:08;;;;;;;3.78;3.47;;;;;;;;;;4916219;29;20489;-60